Etusivu
METAR-TAF:

METAR-TAF

Lentoasemat :

Longyearbyen, Norja

Huippuvuorten lentoasema

Leveyspiiri: 78-15N, Pituuspiiri: 015-28E, korkeus merenpinnasta: 2 m

Tämänhetkinen sää

Tämä raportti tehtiin 46 minuuttia sitten, kello 16.50 UTC
Tuuli 5 kn idästä/kaakosta
Lämpötila -4°C
Kosteus 80%
Ilmanpaine 1014 hPa
Näkyvyys 10 km tai enemmän
Muutamia pilviä 2500 ft:n korkeudessa
Hajonneita pilviä 4000 ft:n korkeudessa
heikkoa lumisadetta

METAR: ENSB 171650Z 12005KT 9999 -SN FEW025 BKN040 M04/M07 Q1014 RMK WIND 1400FT 09008KT

Aika: 18:36 (17:36 UTC)

Sääennuste

Ennuste voimassa 17. päivästä klo 12 UTC - 18. päivään klo 12 UTC
Tuuli 10 kn idästä/kaakosta
Näkyvyys 10 km tai enemmän
Muutamia pilviä 1500 ft:n korkeudessa
Hajonneita pilviä 3000 ft:n korkeudessa
Tulossa
18. päivästä klo 01 UTC - 18. päivään klo 03 UTC
Tuuli 20 kn idästä/kaakosta

TAF: ENSB 1712/1812 11010KT 9999 FEW015 BKN030 BECMG 1801/1803 12020KT

Säähavainnot ja -ennusteet yli 4000 lentoasemalta (METAR- ja TAF-raportit).

Käytössä olevat sääasemat on merkitty karttaan keltaisilla ja punaisilla pisteillä.

Aseta hiiri pisteen päälle nähdäksesi sääaseman nimen.

Klikkaa sitten nähdäksesi säähavainnot ja -ennusteet.

Kartan vaihtaminen: klikkaa mustalla rastilla varustettuja vihreitä pisteitä, niin voit zoomata sisään; viivalla varustettua vihreää pistettä, niin voit zoomata ulos tai vihreitä nuolia, niin pääset viereisille kartoille.


METAR-TAF: